sensor_id;sensor_type;location;lat;lon;timestamp;P1;durP1;ratioP1;P2;durP2;ratioP2
12367;SDS011;6248;49.812;6.620;2023-03-20T00:01:32;3.70;;;2.20;;
12367;SDS011;6248;49.812;6.620;2023-03-20T00:03:59;2.23;;;2.03;;
12367;SDS011;6248;49.812;6.620;2023-03-20T00:06:27;2.37;;;2.17;;
12367;SDS011;6248;49.812;6.620;2023-03-20T00:08:56;2.60;;;2.40;;
12367;SDS011;6248;49.812;6.620;2023-03-20T00:11:27;2.73;;;2.53;;
12367;SDS011;6248;49.812;6.620;2023-03-20T00:13:57;2.50;;;2.30;;
12367;SDS011;6248;49.812;6.620;2023-03-20T00:16:26;2.90;;;2.70;;
12367;SDS011;6248;49.812;6.620;2023-03-20T00:18:56;2.80;;;2.60;;
12367;SDS011;6248;49.812;6.620;2023-03-20T00:21:24;3.70;;;2.73;;
12367;SDS011;6248;49.812;6.620;2023-03-20T00:23:52;2.90;;;2.60;;
12367;SDS011;6248;49.812;6.620;2023-03-20T00:26:23;3.03;;;2.60;;
12367;SDS011;6248;49.812;6.620;2023-03-20T00:28:52;3.40;;;3.10;;
12367;SDS011;6248;49.812;6.620;2023-03-20T00:31:22;4.53;;;3.30;;
12367;SDS011;6248;49.812;6.620;2023-03-20T00:33:50;3.33;;;2.80;;
12367;SDS011;6248;49.812;6.620;2023-03-20T00:36:18;3.80;;;2.97;;
12367;SDS011;6248;49.812;6.620;2023-03-20T00:38:45;3.53;;;3.23;;
12367;SDS011;6248;49.812;6.620;2023-03-20T00:41:22;3.43;;;3.13;;
12367;SDS011;6248;49.812;6.620;2023-03-20T00:43:50;3.83;;;3.47;;
12367;SDS011;6248;49.812;6.620;2023-03-20T00:46:18;3.17;;;2.97;;
12367;SDS011;6248;49.812;6.620;2023-03-20T00:48:45;3.87;;;3.00;;
12367;SDS011;6248;49.812;6.620;2023-03-20T00:51:13;5.10;;;3.63;;
12367;SDS011;6248;49.812;6.620;2023-03-20T00:53:40;4.87;;;4.17;;
12367;SDS011;6248;49.812;6.620;2023-03-20T00:56:17;4.17;;;3.87;;
12367;SDS011;6248;49.812;6.620;2023-03-20T00:58:51;5.53;;;4.07;;
12367;SDS011;6248;49.812;6.620;2023-03-20T01:01:19;4.43;;;3.57;;
12367;SDS011;6248;49.812;6.620;2023-03-20T01:03:46;3.90;;;3.50;;
12367;SDS011;6248;49.812;6.620;2023-03-20T01:06:13;4.40;;;4.00;;
12367;SDS011;6248;49.812;6.620;2023-03-20T01:08:43;4.90;;;4.30;;
12367;SDS011;6248;49.812;6.620;2023-03-20T01:11:12;4.93;;;4.53;;
12367;SDS011;6248;49.812;6.620;2023-03-20T01:13:40;5.53;;;4.50;;
12367;SDS011;6248;49.812;6.620;2023-03-20T01:16:13;4.90;;;4.40;;
12367;SDS011;6248;49.812;6.620;2023-03-20T01:18:47;5.10;;;4.63;;
12367;SDS011;6248;49.812;6.620;2023-03-20T01:21:14;5.50;;;4.60;;
12367;SDS011;6248;49.812;6.620;2023-03-20T01:23:41;6.20;;;5.63;;
12367;SDS011;6248;49.812;6.620;2023-03-20T01:26:13;6.73;;;5.90;;
12367;SDS011;6248;49.812;6.620;2023-03-20T01:28:45;6.10;;;5.53;;
12367;SDS011;6248;49.812;6.620;2023-03-20T01:31:14;8.80;;;7.80;;
12367;SDS011;6248;49.812;6.620;2023-03-20T01:33:42;8.30;;;7.13;;
12367;SDS011;6248;49.812;6.620;2023-03-20T01:36:10;7.73;;;6.93;;
12367;SDS011;6248;49.812;6.620;2023-03-20T01:38:38;12.27;;;10.97;;
12367;SDS011;6248;49.812;6.620;2023-03-20T01:41:06;16.37;;;14.50;;
12367;SDS011;6248;49.812;6.620;2023-03-20T01:43:35;15.50;;;13.90;;
12367;SDS011;6248;49.812;6.620;2023-03-20T01:46:03;15.20;;;12.70;;
12367;SDS011;6248;49.812;6.620;2023-03-20T01:48:56;17.20;;;15.33;;
12367;SDS011;6248;49.812;6.620;2023-03-20T01:51:24;18.07;;;16.27;;
12367;SDS011;6248;49.812;6.620;2023-03-20T01:53:53;19.70;;;17.00;;
12367;SDS011;6248;49.812;6.620;2023-03-20T01:56:20;16.03;;;14.43;;
12367;SDS011;6248;49.812;6.620;2023-03-20T01:58:48;19.13;;;17.23;;
12367;SDS011;6248;49.812;6.620;2023-03-20T02:01:17;19.57;;;17.57;;
12367;SDS011;6248;49.812;6.620;2023-03-20T02:03:47;18.87;;;16.87;;
12367;SDS011;6248;49.812;6.620;2023-03-20T02:06:17;18.90;;;16.97;;
12367;SDS011;6248;49.812;6.620;2023-03-20T02:08:47;19.63;;;17.60;;
12367;SDS011;6248;49.812;6.620;2023-03-20T02:11:15;20.47;;;18.37;;
12367;SDS011;6248;49.812;6.620;2023-03-20T02:13:42;17.27;;;15.50;;
12367;SDS011;6248;49.812;6.620;2023-03-20T02:16:11;19.70;;;17.70;;
12367;SDS011;6248;49.812;6.620;2023-03-20T02:18:39;18.77;;;16.87;;
12367;SDS011;6248;49.812;6.620;2023-03-20T02:24:01;18.83;;;16.90;;
12367;SDS011;6248;49.812;6.620;2023-03-20T02:26:38;17.20;;;15.43;;
12367;SDS011;6248;49.812;6.620;2023-03-20T02:32:08;19.20;;;17.20;;
12367;SDS011;6248;49.812;6.620;2023-03-20T02:34:53;19.57;;;17.53;;
12367;SDS011;6248;49.812;6.620;2023-03-20T02:37:25;19.07;;;17.03;;
12367;SDS011;6248;49.812;6.620;2023-03-20T02:40:01;16.77;;;15.13;;
12367;SDS011;6248;49.812;6.620;2023-03-20T02:42:31;18.70;;;16.77;;
12367;SDS011;6248;49.812;6.620;2023-03-20T02:45:02;19.07;;;17.17;;
12367;SDS011;6248;49.812;6.620;2023-03-20T02:47:30;18.40;;;16.13;;
12367;SDS011;6248;49.812;6.620;2023-03-20T02:50:01;17.83;;;16.03;;
12367;SDS011;6248;49.812;6.620;2023-03-20T02:52:34;19.47;;;16.97;;
12367;SDS011;6248;49.812;6.620;2023-03-20T02:55:09;17.77;;;15.97;;
12367;SDS011;6248;49.812;6.620;2023-03-20T02:57:41;17.70;;;15.93;;
12367;SDS011;6248;49.812;6.620;2023-03-20T03:00:11;16.87;;;15.07;;
12367;SDS011;6248;49.812;6.620;2023-03-20T03:02:41;18.17;;;15.73;;
12367;SDS011;6248;49.812;6.620;2023-03-20T03:05:11;17.20;;;15.50;;
12367;SDS011;6248;49.812;6.620;2023-03-20T03:07:42;16.47;;;14.87;;
12367;SDS011;6248;49.812;6.620;2023-03-20T03:10:14;16.00;;;13.40;;
12367;SDS011;6248;49.812;6.620;2023-03-20T03:12:44;15.80;;;14.20;;
12367;SDS011;6248;49.812;6.620;2023-03-20T03:15:14;15.17;;;13.57;;
12367;SDS011;6248;49.812;6.620;2023-03-20T03:17:43;17.70;;;15.80;;
12367;SDS011;6248;49.812;6.620;2023-03-20T03:20:13;16.03;;;14.37;;
12367;SDS011;6248;49.812;6.620;2023-03-20T03:22:44;15.77;;;14.10;;
12367;SDS011;6248;49.812;6.620;2023-03-20T03:25:12;17.07;;;15.27;;
12367;SDS011;6248;49.812;6.620;2023-03-20T03:27:40;15.10;;;13.60;;
12367;SDS011;6248;49.812;6.620;2023-03-20T03:30:11;14.67;;;13.17;;
12367;SDS011;6248;49.812;6.620;2023-03-20T03:32:40;16.30;;;14.60;;
12367;SDS011;6248;49.812;6.620;2023-03-20T03:35:10;14.57;;;13.17;;
12367;SDS011;6248;49.812;6.620;2023-03-20T03:37:41;15.17;;;13.57;;
12367;SDS011;6248;49.812;6.620;2023-03-20T03:40:17;16.67;;;14.50;;
12367;SDS011;6248;49.812;6.620;2023-03-20T03:42:49;15.73;;;14.13;;
12367;SDS011;6248;49.812;6.620;2023-03-20T03:45:20;14.47;;;13.00;;
12367;SDS011;6248;49.812;6.620;2023-03-20T03:47:51;14.43;;;13.03;;
12367;SDS011;6248;49.812;6.620;2023-03-20T03:50:20;15.20;;;13.70;;
12367;SDS011;6248;49.812;6.620;2023-03-20T03:52:50;14.20;;;12.80;;
12367;SDS011;6248;49.812;6.620;2023-03-20T03:55:23;12.83;;;11.60;;
12367;SDS011;6248;49.812;6.620;2023-03-20T03:57:52;14.00;;;12.60;;
12367;SDS011;6248;49.812;6.620;2023-03-20T04:00:22;13.20;;;11.90;;
12367;SDS011;6248;49.812;6.620;2023-03-20T04:02:52;13.00;;;11.70;;
12367;SDS011;6248;49.812;6.620;2023-03-20T04:05:20;13.23;;;11.83;;
12367;SDS011;6248;49.812;6.620;2023-03-20T04:07:51;12.17;;;10.93;;
12367;SDS011;6248;49.812;6.620;2023-03-20T04:10:19;11.67;;;10.50;;
12367;SDS011;6248;49.812;6.620;2023-03-20T04:12:48;13.37;;;12.07;;
12367;SDS011;6248;49.812;6.620;2023-03-20T04:15:16;15.80;;;11.80;;
12367;SDS011;6248;49.812;6.620;2023-03-20T04:17:44;14.47;;;12.53;;
12367;SDS011;6248;49.812;6.620;2023-03-20T04:20:12;13.97;;;12.57;;
12367;SDS011;6248;49.812;6.620;2023-03-20T04:22:40;14.70;;;12.73;;
12367;SDS011;6248;49.812;6.620;2023-03-20T04:25:08;13.93;;;12.50;;
12367;SDS011;6248;49.812;6.620;2023-03-20T04:27:36;15.57;;;13.87;;
12367;SDS011;6248;49.812;6.620;2023-03-20T04:30:05;17.20;;;14.67;;
12367;SDS011;6248;49.812;6.620;2023-03-20T04:32:33;16.93;;;14.17;;
12367;SDS011;6248;49.812;6.620;2023-03-20T04:35:00;16.83;;;14.83;;
12367;SDS011;6248;49.812;6.620;2023-03-20T04:37:27;16.83;;;15.00;;
12367;SDS011;6248;49.812;6.620;2023-03-20T04:39:55;18.03;;;16.03;;
12367;SDS011;6248;49.812;6.620;2023-03-20T04:42:22;16.00;;;14.10;;
12367;SDS011;6248;49.812;6.620;2023-03-20T04:44:50;18.13;;;15.07;;
12367;SDS011;6248;49.812;6.620;2023-03-20T04:47:18;15.93;;;14.20;;
12367;SDS011;6248;49.812;6.620;2023-03-20T04:49:46;18.07;;;14.17;;
12367;SDS011;6248;49.812;6.620;2023-03-20T04:52:13;15.70;;;13.17;;
12367;SDS011;6248;49.812;6.620;2023-03-20T04:54:40;13.73;;;11.83;;
12367;SDS011;6248;49.812;6.620;2023-03-20T04:57:08;14.23;;;12.33;;
12367;SDS011;6248;49.812;6.620;2023-03-20T04:59:35;15.93;;;13.40;;
12367;SDS011;6248;49.812;6.620;2023-03-20T05:02:02;13.47;;;12.07;;
12367;SDS011;6248;49.812;6.620;2023-03-20T05:04:31;14.47;;;11.67;;
12367;SDS011;6248;49.812;6.620;2023-03-20T05:06:59;15.33;;;11.73;;
12367;SDS011;6248;49.812;6.620;2023-03-20T05:09:26;14.80;;;11.53;;
12367;SDS011;6248;49.812;6.620;2023-03-20T05:11:53;13.60;;;11.77;;
12367;SDS011;6248;49.812;6.620;2023-03-20T05:14:21;14.43;;;11.80;;
12367;SDS011;6248;49.812;6.620;2023-03-20T05:16:48;14.47;;;11.47;;
12367;SDS011;6248;49.812;6.620;2023-03-20T05:19:15;12.80;;;11.27;;
12367;SDS011;6248;49.812;6.620;2023-03-20T05:21:44;12.70;;;11.40;;
12367;SDS011;6248;49.812;6.620;2023-03-20T05:24:12;14.03;;;10.83;;
12367;SDS011;6248;49.812;6.620;2023-03-20T05:26:39;13.57;;;11.13;;
12367;SDS011;6248;49.812;6.620;2023-03-20T05:29:06;12.97;;;10.90;;
12367;SDS011;6248;49.812;6.620;2023-03-20T05:31:34;13.67;;;10.43;;
12367;SDS011;6248;49.812;6.620;2023-03-20T05:34:01;13.87;;;11.03;;
12367;SDS011;6248;49.812;6.620;2023-03-20T05:36:29;13.73;;;10.50;;
12367;SDS011;6248;49.812;6.620;2023-03-20T05:38:58;12.53;;;10.47;;
12367;SDS011;6248;49.812;6.620;2023-03-20T05:41:25;13.07;;;10.57;;
12367;SDS011;6248;49.812;6.620;2023-03-20T05:43:53;12.77;;;10.83;;
12367;SDS011;6248;49.812;6.620;2023-03-20T05:46:20;12.83;;;10.77;;
12367;SDS011;6248;49.812;6.620;2023-03-20T05:48:47;10.93;;;9.83;;
12367;SDS011;6248;49.812;6.620;2023-03-20T05:51:15;14.23;;;10.50;;
12367;SDS011;6248;49.812;6.620;2023-03-20T05:53:42;12.23;;;10.63;;
12367;SDS011;6248;49.812;6.620;2023-03-20T05:56:11;33.40;;;25.63;;
12367;SDS011;6248;49.812;6.620;2023-03-20T05:58:38;14.43;;;12.43;;
12367;SDS011;6248;49.812;6.620;2023-03-20T06:01:06;11.90;;;10.27;;
12367;SDS011;6248;49.812;6.620;2023-03-20T06:03:33;11.00;;;9.53;;
12367;SDS011;6248;49.812;6.620;2023-03-20T06:06:00;10.63;;;9.60;;
12367;SDS011;6248;49.812;6.620;2023-03-20T06:08:28;12.53;;;9.63;;
12367;SDS011;6248;49.812;6.620;2023-03-20T06:10:55;10.07;;;8.87;;
12367;SDS011;6248;49.812;6.620;2023-03-20T06:13:24;10.73;;;9.50;;
12367;SDS011;6248;49.812;6.620;2023-03-20T06:15:53;10.63;;;9.33;;
12367;SDS011;6248;49.812;6.620;2023-03-20T06:18:21;13.33;;;10.87;;
12367;SDS011;6248;49.812;6.620;2023-03-20T06:20:50;12.20;;;10.00;;
12367;SDS011;6248;49.812;6.620;2023-03-20T06:23:18;12.30;;;10.83;;
12367;SDS011;6248;49.812;6.620;2023-03-20T06:25:45;12.83;;;10.17;;
12367;SDS011;6248;49.812;6.620;2023-03-20T06:28:12;11.43;;;9.67;;
12367;SDS011;6248;49.812;6.620;2023-03-20T06:30:42;11.20;;;10.10;;
12367;SDS011;6248;49.812;6.620;2023-03-20T06:33:09;10.50;;;9.40;;
12367;SDS011;6248;49.812;6.620;2023-03-20T06:35:36;10.83;;;9.50;;
12367;SDS011;6248;49.812;6.620;2023-03-20T06:38:04;12.37;;;9.50;;
12367;SDS011;6248;49.812;6.620;2023-03-20T06:40:31;9.93;;;8.90;;
12367;SDS011;6248;49.812;6.620;2023-03-20T06:42:58;10.80;;;9.70;;
12367;SDS011;6248;49.812;6.620;2023-03-20T06:45:26;11.80;;;10.40;;
12367;SDS011;6248;49.812;6.620;2023-03-20T06:47:55;13.27;;;10.40;;
12367;SDS011;6248;49.812;6.620;2023-03-20T06:50:22;12.93;;;10.23;;
12367;SDS011;6248;49.812;6.620;2023-03-20T06:52:49;13.00;;;10.80;;
12367;SDS011;6248;49.812;6.620;2023-03-20T06:55:17;13.60;;;11.33;;
12367;SDS011;6248;49.812;6.620;2023-03-20T06:57:44;14.17;;;11.20;;
12367;SDS011;6248;49.812;6.620;2023-03-20T07:00:12;14.33;;;11.27;;
12367;SDS011;6248;49.812;6.620;2023-03-20T07:02:39;14.17;;;11.43;;
12367;SDS011;6248;49.812;6.620;2023-03-20T07:05:08;14.50;;;11.73;;
12367;SDS011;6248;49.812;6.620;2023-03-20T07:07:36;14.77;;;11.10;;
12367;SDS011;6248;49.812;6.620;2023-03-20T07:10:04;14.63;;;11.67;;
12367;SDS011;6248;49.812;6.620;2023-03-20T07:12:31;13.03;;;10.73;;
12367;SDS011;6248;49.812;6.620;2023-03-20T07:14:59;13.07;;;11.23;;
12367;SDS011;6248;49.812;6.620;2023-03-20T07:17:27;13.90;;;11.70;;
12367;SDS011;6248;49.812;6.620;2023-03-20T07:19:54;14.43;;;11.47;;
12367;SDS011;6248;49.812;6.620;2023-03-20T07:22:24;12.93;;;11.10;;
12367;SDS011;6248;49.812;6.620;2023-03-20T07:24:52;13.17;;;11.10;;
12367;SDS011;6248;49.812;6.620;2023-03-20T07:27:19;12.17;;;10.70;;
12367;SDS011;6248;49.812;6.620;2023-03-20T07:29:47;13.63;;;10.90;;
12367;SDS011;6248;49.812;6.620;2023-03-20T07:32:15;15.33;;;11.13;;
12367;SDS011;6248;49.812;6.620;2023-03-20T07:34:42;13.63;;;11.20;;
12367;SDS011;6248;49.812;6.620;2023-03-20T07:37:10;13.80;;;11.03;;
12367;SDS011;6248;49.812;6.620;2023-03-20T07:39:40;12.10;;;10.80;;
12367;SDS011;6248;49.812;6.620;2023-03-20T07:42:07;13.47;;;10.50;;
12367;SDS011;6248;49.812;6.620;2023-03-20T07:44:34;12.27;;;10.90;;
12367;SDS011;6248;49.812;6.620;2023-03-20T07:47:02;13.33;;;11.30;;
12367;SDS011;6248;49.812;6.620;2023-03-20T07:49:30;14.10;;;11.73;;
12367;SDS011;6248;49.812;6.620;2023-03-20T07:51:57;14.07;;;11.10;;
12367;SDS011;6248;49.812;6.620;2023-03-20T07:54:24;14.27;;;11.57;;
12367;SDS011;6248;49.812;6.620;2023-03-20T07:56:53;13.27;;;11.17;;
12367;SDS011;6248;49.812;6.620;2023-03-20T07:59:21;14.27;;;10.77;;
12367;SDS011;6248;49.812;6.620;2023-03-20T08:01:48;16.87;;;11.17;;
12367;SDS011;6248;49.812;6.620;2023-03-20T08:04:16;14.33;;;11.90;;
12367;SDS011;6248;49.812;6.620;2023-03-20T08:06:46;13.83;;;11.77;;
12367;SDS011;6248;49.812;6.620;2023-03-20T08:09:14;13.97;;;12.20;;
12367;SDS011;6248;49.812;6.620;2023-03-20T08:11:41;17.10;;;11.90;;
12367;SDS011;6248;49.812;6.620;2023-03-20T08:14:10;23.77;;;12.10;;
12367;SDS011;6248;49.812;6.620;2023-03-20T08:16:38;13.47;;;10.13;;
12367;SDS011;6248;49.812;6.620;2023-03-20T08:19:05;12.13;;;9.80;;
12367;SDS011;6248;49.812;6.620;2023-03-20T08:21:33;10.50;;;9.23;;
12367;SDS011;6248;49.812;6.620;2023-03-20T08:24:00;15.47;;;10.10;;
12367;SDS011;6248;49.812;6.620;2023-03-20T08:26:27;12.60;;;9.50;;
12367;SDS011;6248;49.812;6.620;2023-03-20T08:28:54;14.87;;;11.40;;
12367;SDS011;6248;49.812;6.620;2023-03-20T08:31:23;12.63;;;9.87;;
12367;SDS011;6248;49.812;6.620;2023-03-20T08:33:50;12.57;;;10.07;;
12367;SDS011;6248;49.812;6.620;2023-03-20T08:36:18;11.27;;;9.97;;
12367;SDS011;6248;49.812;6.620;2023-03-20T08:38:45;13.13;;;10.23;;
12367;SDS011;6248;49.812;6.620;2023-03-20T08:41:13;10.80;;;9.50;;
12367;SDS011;6248;49.812;6.620;2023-03-20T08:43:40;12.13;;;9.97;;
12367;SDS011;6248;49.812;6.620;2023-03-20T08:46:08;12.83;;;9.53;;
12367;SDS011;6248;49.812;6.620;2023-03-20T08:48:36;12.30;;;9.97;;
12367;SDS011;6248;49.812;6.620;2023-03-20T08:51:04;12.17;;;9.70;;
12367;SDS011;6248;49.812;6.620;2023-03-20T08:53:32;12.30;;;10.23;;
12367;SDS011;6248;49.812;6.620;2023-03-20T08:55:59;11.00;;;9.30;;
12367;SDS011;6248;49.812;6.620;2023-03-20T08:58:27;11.83;;;9.50;;
12367;SDS011;6248;49.812;6.620;2023-03-20T09:00:55;11.10;;;9.67;;
12367;SDS011;6248;49.812;6.620;2023-03-20T09:03:27;11.07;;;9.70;;
12367;SDS011;6248;49.812;6.620;2023-03-20T09:05:55;13.43;;;9.60;;
12367;SDS011;6248;49.812;6.620;2023-03-20T09:08:22;9.13;;;8.23;;
12367;SDS011;6248;49.812;6.620;2023-03-20T09:10:50;9.93;;;8.60;;
12367;SDS011;6248;49.812;6.620;2023-03-20T09:13:17;9.60;;;7.90;;
12367;SDS011;6248;49.812;6.620;2023-03-20T09:15:50;9.13;;;7.70;;
12367;SDS011;6248;49.812;6.620;2023-03-20T09:18:18;9.30;;;7.83;;
12367;SDS011;6248;49.812;6.620;2023-03-20T09:20:46;9.63;;;7.43;;
12367;SDS011;6248;49.812;6.620;2023-03-20T09:23:15;9.40;;;7.90;;
12367;SDS011;6248;49.812;6.620;2023-03-20T09:25:42;9.53;;;7.27;;
12367;SDS011;6248;49.812;6.620;2023-03-20T09:28:09;9.13;;;7.90;;
12367;SDS011;6248;49.812;6.620;2023-03-20T09:30:37;10.03;;;8.30;;
12367;SDS011;6248;49.812;6.620;2023-03-20T09:33:04;11.93;;;8.47;;
12367;SDS011;6248;49.812;6.620;2023-03-20T09:35:31;8.17;;;7.30;;
12367;SDS011;6248;49.812;6.620;2023-03-20T09:37:59;10.33;;;8.37;;
12367;SDS011;6248;49.812;6.620;2023-03-20T09:40:28;11.67;;;8.67;;
12367;SDS011;6248;49.812;6.620;2023-03-20T09:42:58;9.57;;;8.37;;
12367;SDS011;6248;49.812;6.620;2023-03-20T09:45:33;9.80;;;8.80;;
12367;SDS011;6248;49.812;6.620;2023-03-20T09:48:04;12.73;;;9.23;;
12367;SDS011;6248;49.812;6.620;2023-03-20T09:50:35;10.13;;;8.23;;
12367;SDS011;6248;49.812;6.620;2023-03-20T09:53:07;10.53;;;9.10;;
12367;SDS011;6248;49.812;6.620;2023-03-20T09:55:38;11.33;;;9.07;;
12367;SDS011;6248;49.812;6.620;2023-03-20T09:58:09;9.27;;;8.33;;
12367;SDS011;6248;49.812;6.620;2023-03-20T10:00:38;11.03;;;7.53;;
12367;SDS011;6248;49.812;6.620;2023-03-20T10:03:08;7.83;;;6.60;;
12367;SDS011;6248;49.812;6.620;2023-03-20T10:05:41;8.63;;;6.53;;
12367;SDS011;6248;49.812;6.620;2023-03-20T10:08:10;7.40;;;6.07;;
12367;SDS011;6248;49.812;6.620;2023-03-20T10:10:45;13.30;;;7.20;;
12367;SDS011;6248;49.812;6.620;2023-03-20T10:13:24;8.60;;;6.77;;
12367;SDS011;6248;49.812;6.620;2023-03-20T10:15:54;7.67;;;6.77;;
12367;SDS011;6248;49.812;6.620;2023-03-20T10:18:25;8.83;;;6.87;;
12367;SDS011;6248;49.812;6.620;2023-03-20T10:20:54;7.17;;;6.03;;
12367;SDS011;6248;49.812;6.620;2023-03-20T10:23:24;10.03;;;6.87;;
12367;SDS011;6248;49.812;6.620;2023-03-20T10:25:55;8.70;;;5.90;;
12367;SDS011;6248;49.812;6.620;2023-03-20T10:28:25;8.17;;;5.93;;
12367;SDS011;6248;49.812;6.620;2023-03-20T10:30:56;7.73;;;5.77;;
12367;SDS011;6248;49.812;6.620;2023-03-20T10:33:30;7.53;;;5.63;;
12367;SDS011;6248;49.812;6.620;2023-03-20T10:36:03;7.70;;;5.87;;
12367;SDS011;6248;49.812;6.620;2023-03-20T10:38:35;6.40;;;5.20;;
12367;SDS011;6248;49.812;6.620;2023-03-20T10:41:08;6.83;;;5.10;;
12367;SDS011;6248;49.812;6.620;2023-03-20T10:43:37;6.77;;;5.13;;
12367;SDS011;6248;49.812;6.620;2023-03-20T10:46:05;9.43;;;5.40;;
12367;SDS011;6248;49.812;6.620;2023-03-20T10:48:35;7.33;;;4.90;;
12367;SDS011;6248;49.812;6.620;2023-03-20T10:51:03;5.07;;;4.40;;
12367;SDS011;6248;49.812;6.620;2023-03-20T10:53:31;5.57;;;4.50;;
12367;SDS011;6248;49.812;6.620;2023-03-20T10:56:02;6.33;;;4.10;;
12367;SDS011;6248;49.812;6.620;2023-03-20T10:58:33;7.50;;;3.57;;
12367;SDS011;6248;49.812;6.620;2023-03-20T11:01:01;3.63;;;3.30;;
12367;SDS011;6248;49.812;6.620;2023-03-20T11:03:29;4.63;;;3.23;;
12367;SDS011;6248;49.812;6.620;2023-03-20T11:05:58;6.70;;;3.73;;
12367;SDS011;6248;49.812;6.620;2023-03-20T11:08:29;6.20;;;4.20;;
12367;SDS011;6248;49.812;6.620;2023-03-20T11:10:57;5.50;;;3.97;;
12367;SDS011;6248;49.812;6.620;2023-03-20T11:13:26;4.77;;;3.60;;
12367;SDS011;6248;49.812;6.620;2023-03-20T11:15:57;6.27;;;3.60;;
12367;SDS011;6248;49.812;6.620;2023-03-20T11:18:33;5.63;;;4.07;;
12367;SDS011;6248;49.812;6.620;2023-03-20T11:21:01;5.07;;;3.43;;
12367;SDS011;6248;49.812;6.620;2023-03-20T11:23:28;6.13;;;4.37;;
12367;SDS011;6248;49.812;6.620;2023-03-20T11:25:58;5.03;;;3.70;;
12367;SDS011;6248;49.812;6.620;2023-03-20T11:28:29;9.00;;;4.03;;
12367;SDS011;6248;49.812;6.620;2023-03-20T11:31:00;6.07;;;3.73;;
12367;SDS011;6248;49.812;6.620;2023-03-20T11:33:28;5.73;;;3.47;;
12367;SDS011;6248;49.812;6.620;2023-03-20T11:35:56;6.00;;;3.00;;
12367;SDS011;6248;49.812;6.620;2023-03-20T11:38:24;3.73;;;2.70;;
12367;SDS011;6248;49.812;6.620;2023-03-20T11:40:51;3.80;;;2.47;;
12367;SDS011;6248;49.812;6.620;2023-03-20T11:43:19;6.27;;;2.67;;
12367;SDS011;6248;49.812;6.620;2023-03-20T11:45:48;4.70;;;2.90;;
12367;SDS011;6248;49.812;6.620;2023-03-20T11:48:18;4.57;;;2.93;;
12367;SDS011;6248;49.812;6.620;2023-03-20T11:50:47;3.13;;;2.80;;
12367;SDS011;6248;49.812;6.620;2023-03-20T11:53:19;4.73;;;2.77;;
12367;SDS011;6248;49.812;6.620;2023-03-20T11:55:57;6.20;;;3.57;;
12367;SDS011;6248;49.812;6.620;2023-03-20T11:58:25;4.17;;;3.13;;
12367;SDS011;6248;49.812;6.620;2023-03-20T12:00:54;5.10;;;3.23;;
12367;SDS011;6248;49.812;6.620;2023-03-20T12:03:42;6.17;;;3.50;;
12367;SDS011;6248;49.812;6.620;2023-03-20T12:06:15;5.07;;;3.20;;
12367;SDS011;6248;49.812;6.620;2023-03-20T12:08:45;4.57;;;3.43;;
12367;SDS011;6248;49.812;6.620;2023-03-20T12:13:59;4.10;;;3.10;;
12367;SDS011;6248;49.812;6.620;2023-03-20T12:16:28;4.73;;;3.00;;
12367;SDS011;6248;49.812;6.620;2023-03-20T12:18:58;6.67;;;3.37;;
12367;SDS011;6248;49.812;6.620;2023-03-20T12:21:29;4.40;;;2.70;;
12367;SDS011;6248;49.812;6.620;2023-03-20T12:23:59;4.40;;;2.63;;
12367;SDS011;6248;49.812;6.620;2023-03-20T12:26:31;5.63;;;3.33;;
12367;SDS011;6248;49.812;6.620;2023-03-20T12:28:59;3.70;;;2.43;;
12367;SDS011;6248;49.812;6.620;2023-03-20T12:31:31;4.17;;;2.60;;
12367;SDS011;6248;49.812;6.620;2023-03-20T12:34:00;4.97;;;2.50;;
12367;SDS011;6248;49.812;6.620;2023-03-20T12:36:31;3.23;;;2.50;;
12367;SDS011;6248;49.812;6.620;2023-03-20T12:39:00;5.20;;;3.00;;
12367;SDS011;6248;49.812;6.620;2023-03-20T12:41:28;7.17;;;3.20;;
12367;SDS011;6248;49.812;6.620;2023-03-20T12:44:09;4.77;;;2.80;;
12367;SDS011;6248;49.812;6.620;2023-03-20T12:46:40;4.80;;;2.30;;
12367;SDS011;6248;49.812;6.620;2023-03-20T12:49:13;4.73;;;2.80;;
12367;SDS011;6248;49.812;6.620;2023-03-20T12:51:47;4.93;;;2.53;;
12367;SDS011;6248;49.812;6.620;2023-03-20T12:54:24;4.03;;;2.17;;
12367;SDS011;6248;49.812;6.620;2023-03-20T12:56:58;5.27;;;2.17;;
12367;SDS011;6248;49.812;6.620;2023-03-20T12:59:30;3.97;;;1.90;;
12367;SDS011;6248;49.812;6.620;2023-03-20T13:02:02;3.33;;;1.80;;
12367;SDS011;6248;49.812;6.620;2023-03-20T13:04:42;7.10;;;2.30;;
12367;SDS011;6248;49.812;6.620;2023-03-20T13:07:14;6.80;;;2.40;;
12367;SDS011;6248;49.812;6.620;2023-03-20T13:09:46;4.10;;;2.20;;
12367;SDS011;6248;49.812;6.620;2023-03-20T13:12:19;3.03;;;2.20;;
12367;SDS011;6248;49.812;6.620;2023-03-20T13:14:51;4.43;;;1.97;;
12367;SDS011;6248;49.812;6.620;2023-03-20T13:17:23;3.30;;;1.87;;
12367;SDS011;6248;49.812;6.620;2023-03-20T13:19:58;2.90;;;1.97;;
12367;SDS011;6248;49.812;6.620;2023-03-20T13:22:29;4.43;;;2.17;;
12367;SDS011;6248;49.812;6.620;2023-03-20T13:25:00;4.33;;;1.67;;
12367;SDS011;6248;49.812;6.620;2023-03-20T13:27:31;4.30;;;1.77;;
12367;SDS011;6248;49.812;6.620;2023-03-20T13:30:02;5.20;;;2.23;;
12367;SDS011;6248;49.812;6.620;2023-03-20T13:32:37;6.27;;;1.87;;
12367;SDS011;6248;49.812;6.620;2023-03-20T13:35:14;4.00;;;2.00;;
12367;SDS011;6248;49.812;6.620;2023-03-20T13:37:45;3.00;;;1.80;;
12367;SDS011;6248;49.812;6.620;2023-03-20T13:40:13;4.30;;;1.80;;
12367;SDS011;6248;49.812;6.620;2023-03-20T13:42:46;3.87;;;1.80;;
12367;SDS011;6248;49.812;6.620;2023-03-20T13:45:20;4.57;;;1.70;;
12367;SDS011;6248;49.812;6.620;2023-03-20T13:47:50;5.90;;;2.03;;
12367;SDS011;6248;49.812;6.620;2023-03-20T13:50:35;3.27;;;1.70;;
12367;SDS011;6248;49.812;6.620;2023-03-20T13:53:05;5.47;;;1.97;;
12367;SDS011;6248;49.812;6.620;2023-03-20T13:55:38;5.03;;;1.87;;
12367;SDS011;6248;49.812;6.620;2023-03-20T13:58:13;3.30;;;2.00;;
12367;SDS011;6248;49.812;6.620;2023-03-20T14:00:45;4.80;;;2.10;;
12367;SDS011;6248;49.812;6.620;2023-03-20T14:03:16;2.77;;;1.47;;
12367;SDS011;6248;49.812;6.620;2023-03-20T14:05:46;3.37;;;1.80;;
12367;SDS011;6248;49.812;6.620;2023-03-20T14:08:20;3.87;;;1.80;;
12367;SDS011;6248;49.812;6.620;2023-03-20T14:10:53;3.60;;;1.97;;
12367;SDS011;6248;49.812;6.620;2023-03-20T14:13:21;4.03;;;2.00;;
12367;SDS011;6248;49.812;6.620;2023-03-20T14:15:52;4.13;;;1.73;;
12367;SDS011;6248;49.812;6.620;2023-03-20T14:18:20;4.07;;;1.70;;
12367;SDS011;6248;49.812;6.620;2023-03-20T14:20:53;5.40;;;1.83;;
12367;SDS011;6248;49.812;6.620;2023-03-20T14:23:26;3.97;;;1.57;;
12367;SDS011;6248;49.812;6.620;2023-03-20T14:25:55;6.40;;;1.70;;
12367;SDS011;6248;49.812;6.620;2023-03-20T14:28:24;3.80;;;1.70;;
12367;SDS011;6248;49.812;6.620;2023-03-20T14:33:34;4.83;;;1.70;;
12367;SDS011;6248;49.812;6.620;2023-03-20T14:36:15;6.87;;;1.80;;
12367;SDS011;6248;49.812;6.620;2023-03-20T14:38:48;3.03;;;1.50;;
12367;SDS011;6248;49.812;6.620;2023-03-20T14:41:18;3.73;;;1.90;;
12367;SDS011;6248;49.812;6.620;2023-03-20T14:43:55;3.63;;;1.80;;
12367;SDS011;6248;49.812;6.620;2023-03-20T14:46:26;5.87;;;2.10;;
12367;SDS011;6248;49.812;6.620;2023-03-20T14:48:56;5.50;;;1.97;;
12367;SDS011;6248;49.812;6.620;2023-03-20T14:51:32;4.37;;;1.70;;
12367;SDS011;6248;49.812;6.620;2023-03-20T14:54:22;4.23;;;1.67;;
12367;SDS011;6248;49.812;6.620;2023-03-20T14:56:50;4.07;;;1.90;;
12367;SDS011;6248;49.812;6.620;2023-03-20T14:59:18;3.80;;;1.90;;
12367;SDS011;6248;49.812;6.620;2023-03-20T15:01:47;4.60;;;1.87;;
12367;SDS011;6248;49.812;6.620;2023-03-20T15:04:19;4.73;;;1.53;;
12367;SDS011;6248;49.812;6.620;2023-03-20T15:06:51;3.97;;;1.80;;
12367;SDS011;6248;49.812;6.620;2023-03-20T15:09:19;5.50;;;2.07;;
12367;SDS011;6248;49.812;6.620;2023-03-20T15:11:48;5.73;;;2.03;;
12367;SDS011;6248;49.812;6.620;2023-03-20T15:14:17;4.63;;;2.00;;